sensor_id;sensor_type;location;lat;lon;timestamp;temperature;humidity
78571;SHT31;67861;51.966;5.672;2023-05-16T00:02:04;14.0;56.9
78571;SHT31;67861;51.966;5.672;2023-05-16T00:04:36;14.0;55.9
78571;SHT31;67861;51.966;5.672;2023-05-16T00:07:06;14.0;56.2
78571;SHT31;67861;51.966;5.672;2023-05-16T00:09:35;14.0;56.5
78571;SHT31;67861;51.966;5.672;2023-05-16T00:12:05;14.0;56.1
78571;SHT31;67861;51.966;5.672;2023-05-16T00:14:35;14.1;56.2
78571;SHT31;67861;51.966;5.672;2023-05-16T00:17:04;14.1;56.1
78571;SHT31;67861;51.966;5.672;2023-05-16T00:19:38;14.0;55.4
78571;SHT31;67861;51.966;5.672;2023-05-16T00:22:08;14.0;56.4
78571;SHT31;67861;51.966;5.672;2023-05-16T00:24:38;14.0;55.7
78571;SHT31;67861;51.966;5.672;2023-05-16T00:27:08;14.0;56.6
78571;SHT31;67861;51.966;5.672;2023-05-16T00:29:38;14.0;56.6
78571;SHT31;67861;51.966;5.672;2023-05-16T00:32:08;14.0;56.1
78571;SHT31;67861;51.966;5.672;2023-05-16T00:34:39;14.0;56.4
78571;SHT31;67861;51.966;5.672;2023-05-16T00:37:09;14.0;55.9
78571;SHT31;67861;51.966;5.672;2023-05-16T00:39:38;14.0;55.7
78571;SHT31;67861;51.966;5.672;2023-05-16T00:42:08;14.0;56.0
78571;SHT31;67861;51.966;5.672;2023-05-16T00:44:37;14.0;55.9
78571;SHT31;67861;51.966;5.672;2023-05-16T00:47:07;14.0;56.4
78571;SHT31;67861;51.966;5.672;2023-05-16T00:49:38;14.1;56.3
78571;SHT31;67861;51.966;5.672;2023-05-16T00:52:08;14.2;55.7
78571;SHT31;67861;51.966;5.672;2023-05-16T00:54:38;14.3;55.3
78571;SHT31;67861;51.966;5.672;2023-05-16T00:57:08;14.3;55.3
78571;SHT31;67861;51.966;5.672;2023-05-16T00:59:40;14.3;55.1
78571;SHT31;67861;51.966;5.672;2023-05-16T01:02:10;14.3;55.4
78571;SHT31;67861;51.966;5.672;2023-05-16T01:04:42;14.2;55.3
78571;SHT31;67861;51.966;5.672;2023-05-16T01:07:14;14.2;55.1
78571;SHT31;67861;51.966;5.672;2023-05-16T01:09:46;14.2;55.3
78571;SHT31;67861;51.966;5.672;2023-05-16T01:12:23;14.1;55.5
78571;SHT31;67861;51.966;5.672;2023-05-16T01:15:03;14.1;55.3
78571;SHT31;67861;51.966;5.672;2023-05-16T01:17:47;14.1;55.7
78571;SHT31;67861;51.966;5.672;2023-05-16T01:20:34;14.0;55.9
78571;SHT31;67861;51.966;5.672;2023-05-16T01:23:19;14.0;56.1
78571;SHT31;67861;51.966;5.672;2023-05-16T01:26:09;14.0;56.2
78571;SHT31;67861;51.966;5.672;2023-05-16T01:28:40;14.0;55.4
78571;SHT31;67861;51.966;5.672;2023-05-16T01:31:10;13.9;55.7
78571;SHT31;67861;51.966;5.672;2023-05-16T01:33:40;13.9;55.4
78571;SHT31;67861;51.966;5.672;2023-05-16T01:36:18;13.9;55.7
78571;SHT31;67861;51.966;5.672;2023-05-16T01:38:58;13.8;55.7
78571;SHT31;67861;51.966;5.672;2023-05-16T01:41:38;13.8;55.8
78571;SHT31;67861;51.966;5.672;2023-05-16T01:44:18;13.7;56.4
78571;SHT31;67861;51.966;5.672;2023-05-16T01:46:55;13.7;55.7
78571;SHT31;67861;51.966;5.672;2023-05-16T01:49:35;13.7;55.7
78571;SHT31;67861;51.966;5.672;2023-05-16T01:52:12;13.6;55.9
78571;SHT31;67861;51.966;5.672;2023-05-16T01:54:44;13.6;55.6
78571;SHT31;67861;51.966;5.672;2023-05-16T01:57:16;13.6;56.0
78571;SHT31;67861;51.966;5.672;2023-05-16T01:59:46;13.6;56.5
78571;SHT31;67861;51.966;5.672;2023-05-16T02:02:18;13.5;56.6
78571;SHT31;67861;51.966;5.672;2023-05-16T02:04:48;13.5;56.8
78571;SHT31;67861;51.966;5.672;2023-05-16T02:07:19;13.5;57.5
78571;SHT31;67861;51.966;5.672;2023-05-16T02:09:48;13.5;56.8
78571;SHT31;67861;51.966;5.672;2023-05-16T02:12:20;13.5;57.0
78571;SHT31;67861;51.966;5.672;2023-05-16T02:14:49;13.5;56.7
78571;SHT31;67861;51.966;5.672;2023-05-16T02:17:18;13.6;57.0
78571;SHT31;67861;51.966;5.672;2023-05-16T02:19:48;13.6;56.9
78571;SHT31;67861;51.966;5.672;2023-05-16T02:22:18;13.6;57.4
78571;SHT31;67861;51.966;5.672;2023-05-16T02:24:50;13.6;57.5
78571;SHT31;67861;51.966;5.672;2023-05-16T02:27:23;13.6;57.6
78571;SHT31;67861;51.966;5.672;2023-05-16T02:29:52;13.7;57.6
78571;SHT31;67861;51.966;5.672;2023-05-16T02:32:22;13.7;57.0
78571;SHT31;67861;51.966;5.672;2023-05-16T02:34:55;13.7;58.0
78571;SHT31;67861;51.966;5.672;2023-05-16T02:37:24;13.7;57.2
78571;SHT31;67861;51.966;5.672;2023-05-16T02:39:54;13.7;57.7
78571;SHT31;67861;51.966;5.672;2023-05-16T02:42:26;13.7;57.7
78571;SHT31;67861;51.966;5.672;2023-05-16T02:44:57;13.7;57.9
78571;SHT31;67861;51.966;5.672;2023-05-16T02:47:26;13.7;57.9
78571;SHT31;67861;51.966;5.672;2023-05-16T02:49:56;13.7;57.8
78571;SHT31;67861;51.966;5.672;2023-05-16T02:52:28;13.7;57.1
78571;SHT31;67861;51.966;5.672;2023-05-16T02:54:57;13.8;57.7
78571;SHT31;67861;51.966;5.672;2023-05-16T02:57:27;13.9;56.5
78571;SHT31;67861;51.966;5.672;2023-05-16T02:59:57;13.9;55.9
78571;SHT31;67861;51.966;5.672;2023-05-16T03:02:27;13.9;55.3
78571;SHT31;67861;51.966;5.672;2023-05-16T03:04:56;13.8;56.2
78571;SHT31;67861;51.966;5.672;2023-05-16T03:07:26;13.8;55.4
78571;SHT31;67861;51.966;5.672;2023-05-16T03:09:55;13.7;55.6
78571;SHT31;67861;51.966;5.672;2023-05-16T03:12:25;13.7;56.3
78571;SHT31;67861;51.966;5.672;2023-05-16T03:14:56;13.7;56.4
78571;SHT31;67861;51.966;5.672;2023-05-16T03:17:26;13.7;56.5
78571;SHT31;67861;51.966;5.672;2023-05-16T03:19:55;13.7;56.8
78571;SHT31;67861;51.966;5.672;2023-05-16T03:22:25;13.6;56.8
78571;SHT31;67861;51.966;5.672;2023-05-16T03:24:54;13.6;56.8
78571;SHT31;67861;51.966;5.672;2023-05-16T03:27:25;13.6;56.8
78571;SHT31;67861;51.966;5.672;2023-05-16T03:29:55;13.5;56.4
78571;SHT31;67861;51.966;5.672;2023-05-16T03:32:29;13.5;56.6
78571;SHT31;67861;51.966;5.672;2023-05-16T03:34:58;13.4;56.5
78571;SHT31;67861;51.966;5.672;2023-05-16T03:37:29;13.4;56.5
78571;SHT31;67861;51.966;5.672;2023-05-16T03:40:00;13.4;56.5
78571;SHT31;67861;51.966;5.672;2023-05-16T03:42:31;13.3;56.5
78571;SHT31;67861;51.966;5.672;2023-05-16T03:45:01;13.3;56.8
78571;SHT31;67861;51.966;5.672;2023-05-16T03:47:31;13.2;56.4
78571;SHT31;67861;51.966;5.672;2023-05-16T03:50:00;13.2;56.6
78571;SHT31;67861;51.966;5.672;2023-05-16T03:52:30;13.1;57.0
78571;SHT31;67861;51.966;5.672;2023-05-16T03:54:59;13.1;56.9
78571;SHT31;67861;51.966;5.672;2023-05-16T03:57:35;13.1;57.5
78571;SHT31;67861;51.966;5.672;2023-05-16T04:00:06;13.1;56.5
78571;SHT31;67861;51.966;5.672;2023-05-16T04:02:39;13.1;57.1
78571;SHT31;67861;51.966;5.672;2023-05-16T04:05:11;13.1;56.5
78571;SHT31;67861;51.966;5.672;2023-05-16T04:07:41;13.0;56.9
78571;SHT31;67861;51.966;5.672;2023-05-16T04:10:12;13.0;56.4
78571;SHT31;67861;51.966;5.672;2023-05-16T04:12:42;12.9;56.8
78571;SHT31;67861;51.966;5.672;2023-05-16T04:15:12;12.9;57.3
78571;SHT31;67861;51.966;5.672;2023-05-16T04:17:42;12.9;56.9
78571;SHT31;67861;51.966;5.672;2023-05-16T04:20:12;12.8;56.9
78571;SHT31;67861;51.966;5.672;2023-05-16T04:22:45;12.8;57.5
78571;SHT31;67861;51.966;5.672;2023-05-16T04:25:14;12.7;57.3
78571;SHT31;67861;51.966;5.672;2023-05-16T04:27:44;12.7;58.0
78571;SHT31;67861;51.966;5.672;2023-05-16T04:30:16;12.7;57.5
78571;SHT31;67861;51.966;5.672;2023-05-16T04:32:46;12.6;57.7
78571;SHT31;67861;51.966;5.672;2023-05-16T04:35:16;12.6;57.8
78571;SHT31;67861;51.966;5.672;2023-05-16T04:37:45;12.6;58.2
78571;SHT31;67861;51.966;5.672;2023-05-16T04:40:15;12.5;57.9
78571;SHT31;67861;51.966;5.672;2023-05-16T04:42:44;12.6;58.2
78571;SHT31;67861;51.966;5.672;2023-05-16T04:45:17;12.6;58.1
78571;SHT31;67861;51.966;5.672;2023-05-16T04:47:47;12.5;57.9
78571;SHT31;67861;51.966;5.672;2023-05-16T04:50:17;12.5;58.1
78571;SHT31;67861;51.966;5.672;2023-05-16T04:52:47;12.5;58.2
78571;SHT31;67861;51.966;5.672;2023-05-16T04:55:16;12.5;58.6
78571;SHT31;67861;51.966;5.672;2023-05-16T04:57:48;12.6;58.9
78571;SHT31;67861;51.966;5.672;2023-05-16T05:00:20;12.7;57.6
78571;SHT31;67861;51.966;5.672;2023-05-16T05:02:49;12.7;57.8
78571;SHT31;67861;51.966;5.672;2023-05-16T05:05:19;12.7;57.7
78571;SHT31;67861;51.966;5.672;2023-05-16T05:07:49;12.7;57.4
78571;SHT31;67861;51.966;5.672;2023-05-16T05:10:20;12.7;57.2
78571;SHT31;67861;51.966;5.672;2023-05-16T05:12:50;12.6;57.0
78571;SHT31;67861;51.966;5.672;2023-05-16T05:15:20;12.6;57.7
78571;SHT31;67861;51.966;5.672;2023-05-16T05:17:49;12.6;58.2
78571;SHT31;67861;51.966;5.672;2023-05-16T05:20:19;12.6;58.8
78571;SHT31;67861;51.966;5.672;2023-05-16T05:22:52;12.5;58.1
78571;SHT31;67861;51.966;5.672;2023-05-16T05:25:22;12.5;58.3
78571;SHT31;67861;51.966;5.672;2023-05-16T05:27:51;12.6;59.1
78571;SHT31;67861;51.966;5.672;2023-05-16T05:30:24;12.6;58.5
78571;SHT31;67861;51.966;5.672;2023-05-16T05:32:53;12.6;58.2
78571;SHT31;67861;51.966;5.672;2023-05-16T05:35:23;12.6;57.8
78571;SHT31;67861;51.966;5.672;2023-05-16T05:37:53;12.6;58.4
78571;SHT31;67861;51.966;5.672;2023-05-16T05:40:22;12.6;58.8
78571;SHT31;67861;51.966;5.672;2023-05-16T05:42:52;12.6;58.5
78571;SHT31;67861;51.966;5.672;2023-05-16T05:45:22;12.6;59.0
78571;SHT31;67861;51.966;5.672;2023-05-16T05:47:51;12.6;58.1
78571;SHT31;67861;51.966;5.672;2023-05-16T05:50:21;12.6;59.0
78571;SHT31;67861;51.966;5.672;2023-05-16T05:52:51;12.6;58.4
78571;SHT31;67861;51.966;5.672;2023-05-16T05:55:20;12.6;57.9
78571;SHT31;67861;51.966;5.672;2023-05-16T05:57:50;12.6;60.0
78571;SHT31;67861;51.966;5.672;2023-05-16T06:00:20;12.7;58.9
78571;SHT31;67861;51.966;5.672;2023-05-16T06:02:50;12.7;58.9
78571;SHT31;67861;51.966;5.672;2023-05-16T06:05:20;12.7;59.6
78571;SHT31;67861;51.966;5.672;2023-05-16T06:07:50;12.7;58.6
78571;SHT31;67861;51.966;5.672;2023-05-16T06:10:19;12.8;59.3
78571;SHT31;67861;51.966;5.672;2023-05-16T06:12:52;12.8;58.7
78571;SHT31;67861;51.966;5.672;2023-05-16T06:15:21;12.9;58.3
78571;SHT31;67861;51.966;5.672;2023-05-16T06:17:51;12.9;57.9
78571;SHT31;67861;51.966;5.672;2023-05-16T06:20:22;13.0;59.2
78571;SHT31;67861;51.966;5.672;2023-05-16T06:22:52;13.0;58.1
78571;SHT31;67861;51.966;5.672;2023-05-16T06:25:22;13.0;58.7
78571;SHT31;67861;51.966;5.672;2023-05-16T06:27:52;13.0;57.9
78571;SHT31;67861;51.966;5.672;2023-05-16T06:30:22;13.1;57.9
78571;SHT31;67861;51.966;5.672;2023-05-16T06:32:51;13.1;58.1
78571;SHT31;67861;51.966;5.672;2023-05-16T06:35:22;13.1;58.0
78571;SHT31;67861;51.966;5.672;2023-05-16T06:37:53;13.2;57.2
78571;SHT31;67861;51.966;5.672;2023-05-16T06:40:22;13.2;57.1
78571;SHT31;67861;51.966;5.672;2023-05-16T06:42:52;13.2;56.9
78571;SHT31;67861;51.966;5.672;2023-05-16T06:45:24;13.3;56.9
78571;SHT31;67861;51.966;5.672;2023-05-16T06:47:54;13.3;56.9
78571;SHT31;67861;51.966;5.672;2023-05-16T06:50:24;13.4;57.6
78571;SHT31;67861;51.966;5.672;2023-05-16T06:52:54;13.4;56.3
78571;SHT31;67861;51.966;5.672;2023-05-16T06:55:23;13.5;56.8
78571;SHT31;67861;51.966;5.672;2023-05-16T06:57:53;13.7;55.4
78571;SHT31;67861;51.966;5.672;2023-05-16T07:00:25;13.9;54.8
78571;SHT31;67861;51.966;5.672;2023-05-16T07:02:55;14.0;54.3
78571;SHT31;67861;51.966;5.672;2023-05-16T07:05:26;14.1;55.0
78571;SHT31;67861;51.966;5.672;2023-05-16T07:07:56;14.1;53.8
78571;SHT31;67861;51.966;5.672;2023-05-16T07:10:26;14.2;53.2
78571;SHT31;67861;51.966;5.672;2023-05-16T07:12:55;14.2;52.8
78571;SHT31;67861;51.966;5.672;2023-05-16T07:15:25;14.2;51.2
78571;SHT31;67861;51.966;5.672;2023-05-16T07:17:54;14.3;51.6
78571;SHT31;67861;51.966;5.672;2023-05-16T07:20:24;14.3;50.8
78571;SHT31;67861;51.966;5.672;2023-05-16T07:22:54;14.3;52.7
78571;SHT31;67861;51.966;5.672;2023-05-16T07:25:24;14.3;53.6
78571;SHT31;67861;51.966;5.672;2023-05-16T07:27:54;14.4;51.7
78571;SHT31;67861;51.966;5.672;2023-05-16T07:30:24;14.4;51.6
78571;SHT31;67861;51.966;5.672;2023-05-16T07:32:53;14.4;52.5
78571;SHT31;67861;51.966;5.672;2023-05-16T07:35:23;14.5;52.0
78571;SHT31;67861;51.966;5.672;2023-05-16T07:37:52;14.5;50.7
78571;SHT31;67861;51.966;5.672;2023-05-16T07:40:22;14.6;51.7
78571;SHT31;67861;51.966;5.672;2023-05-16T07:42:55;14.6;49.4
78571;SHT31;67861;51.966;5.672;2023-05-16T07:45:25;14.7;48.8
78571;SHT31;67861;51.966;5.672;2023-05-16T07:47:55;14.8;50.1
78571;SHT31;67861;51.966;5.672;2023-05-16T07:50:26;14.8;48.3
78571;SHT31;67861;51.966;5.672;2023-05-16T07:52:56;14.9;48.6
78571;SHT31;67861;51.966;5.672;2023-05-16T07:55:25;14.9;48.0
78571;SHT31;67861;51.966;5.672;2023-05-16T07:57:55;14.9;48.1
78571;SHT31;67861;51.966;5.672;2023-05-16T08:00:25;15.0;48.2
78571;SHT31;67861;51.966;5.672;2023-05-16T08:02:56;15.0;46.8
78571;SHT31;67861;51.966;5.672;2023-05-16T08:05:25;15.0;48.0
78571;SHT31;67861;51.966;5.672;2023-05-16T08:07:55;15.1;48.2
78571;SHT31;67861;51.966;5.672;2023-05-16T08:10:25;15.1;47.7
78571;SHT31;67861;51.966;5.672;2023-05-16T08:12:54;15.1;49.1
78571;SHT31;67861;51.966;5.672;2023-05-16T08:15:25;15.2;47.3
78571;SHT31;67861;51.966;5.672;2023-05-16T08:17:56;15.2;48.3
78571;SHT31;67861;51.966;5.672;2023-05-16T08:20:27;15.3;47.0
78571;SHT31;67861;51.966;5.672;2023-05-16T08:22:59;15.4;46.7
78571;SHT31;67861;51.966;5.672;2023-05-16T08:25:29;15.4;46.7
78571;SHT31;67861;51.966;5.672;2023-05-16T08:27:58;15.5;46.3
78571;SHT31;67861;51.966;5.672;2023-05-16T08:30:31;15.6;47.9
78571;SHT31;67861;51.966;5.672;2023-05-16T08:33:00;15.6;47.3
78571;SHT31;67861;51.966;5.672;2023-05-16T08:35:31;15.6;44.5
78571;SHT31;67861;51.966;5.672;2023-05-16T08:38:01;15.5;43.6
78571;SHT31;67861;51.966;5.672;2023-05-16T08:40:31;15.5;45.5
78571;SHT31;67861;51.966;5.672;2023-05-16T08:43:01;15.4;45.0
78571;SHT31;67861;51.966;5.672;2023-05-16T08:45:31;15.4;45.4
78571;SHT31;67861;51.966;5.672;2023-05-16T08:48:06;15.4;48.1
78571;SHT31;67861;51.966;5.672;2023-05-16T08:50:35;15.3;47.8
78571;SHT31;67861;51.966;5.672;2023-05-16T08:53:07;15.3;48.9
78571;SHT31;67861;51.966;5.672;2023-05-16T08:55:42;15.3;48.8
78571;SHT31;67861;51.966;5.672;2023-05-16T08:58:12;15.3;49.4
78571;SHT31;67861;51.966;5.672;2023-05-16T09:00:47;15.4;48.5
78571;SHT31;67861;51.966;5.672;2023-05-16T09:03:22;15.5;50.5
78571;SHT31;67861;51.966;5.672;2023-05-16T09:05:55;15.7;48.5
78571;SHT31;67861;51.966;5.672;2023-05-16T09:08:25;15.8;49.6
78571;SHT31;67861;51.966;5.672;2023-05-16T09:10:57;15.9;48.0
78571;SHT31;67861;51.966;5.672;2023-05-16T09:13:27;15.9;49.4
78571;SHT31;67861;51.966;5.672;2023-05-16T09:16:11;16.1;49.5
78571;SHT31;67861;51.966;5.672;2023-05-16T09:18:42;16.2;48.4
78571;SHT31;67861;51.966;5.672;2023-05-16T09:21:13;16.3;49.5
78571;SHT31;67861;51.966;5.672;2023-05-16T09:23:43;16.3;49.6
78571;SHT31;67861;51.966;5.672;2023-05-16T09:26:15;16.4;46.7
78571;SHT31;67861;51.966;5.672;2023-05-16T09:28:46;16.5;49.9
78571;SHT31;67861;51.966;5.672;2023-05-16T09:31:22;16.6;49.1
78571;SHT31;67861;51.966;5.672;2023-05-16T09:33:55;16.7;45.3
78571;SHT31;67861;51.966;5.672;2023-05-16T09:36:25;16.8;46.2
78571;SHT31;67861;51.966;5.672;2023-05-16T09:38:54;16.9;45.7
78571;SHT31;67861;51.966;5.672;2023-05-16T09:41:24;17.0;46.7
78571;SHT31;67861;51.966;5.672;2023-05-16T09:43:54;17.0;47.2
78571;SHT31;67861;51.966;5.672;2023-05-16T09:46:26;17.1;46.2
78571;SHT31;67861;51.966;5.672;2023-05-16T09:48:56;17.1;44.5
78571;SHT31;67861;51.966;5.672;2023-05-16T09:51:25;17.1;43.2
78571;SHT31;67861;51.966;5.672;2023-05-16T09:53:57;17.1;46.9
78571;SHT31;67861;51.966;5.672;2023-05-16T09:56:29;17.1;44.0
78571;SHT31;67861;51.966;5.672;2023-05-16T09:58:59;17.1;46.5
78571;SHT31;67861;51.966;5.672;2023-05-16T10:01:31;17.2;44.5
78571;SHT31;67861;51.966;5.672;2023-05-16T10:04:03;17.3;42.2
78571;SHT31;67861;51.966;5.672;2023-05-16T10:06:33;17.4;41.4
78571;SHT31;67861;51.966;5.672;2023-05-16T10:09:04;17.4;41.6
78571;SHT31;67861;51.966;5.672;2023-05-16T10:11:36;17.4;42.7
78571;SHT31;67861;51.966;5.672;2023-05-16T10:14:08;17.4;42.8
78571;SHT31;67861;51.966;5.672;2023-05-16T10:16:42;17.4;43.5
78571;SHT31;67861;51.966;5.672;2023-05-16T10:19:12;17.5;42.0
78571;SHT31;67861;51.966;5.672;2023-05-16T10:21:47;17.5;42.2
78571;SHT31;67861;51.966;5.672;2023-05-16T10:24:22;17.6;38.7
78571;SHT31;67861;51.966;5.672;2023-05-16T10:26:52;17.7;38.9
78571;SHT31;67861;51.966;5.672;2023-05-16T10:29:23;17.7;40.3
78571;SHT31;67861;51.966;5.672;2023-05-16T10:31:54;17.7;39.1
78571;SHT31;67861;51.966;5.672;2023-05-16T10:34:24;17.8;41.1
78571;SHT31;67861;51.966;5.672;2023-05-16T10:36:56;17.8;39.9
78571;SHT31;67861;51.966;5.672;2023-05-16T10:39:28;17.9;39.0
78571;SHT31;67861;51.966;5.672;2023-05-16T10:41:58;17.9;37.3
78571;SHT31;67861;51.966;5.672;2023-05-16T10:44:31;18.0;41.2
78571;SHT31;67861;51.966;5.672;2023-05-16T10:47:04;18.1;38.3
78571;SHT31;67861;51.966;5.672;2023-05-16T10:49:41;18.2;40.5
78571;SHT31;67861;51.966;5.672;2023-05-16T10:52:12;18.3;39.8
78571;SHT31;67861;51.966;5.672;2023-05-16T10:54:51;18.3;39.2
78571;SHT31;67861;51.966;5.672;2023-05-16T10:57:23;18.3;39.0
78571;SHT31;67861;51.966;5.672;2023-05-16T10:59:52;18.3;38.9
78571;SHT31;67861;51.966;5.672;2023-05-16T11:02:28;18.4;38.9
78571;SHT31;67861;51.966;5.672;2023-05-16T11:05:01;18.4;39.8
78571;SHT31;67861;51.966;5.672;2023-05-16T11:07:34;18.4;38.1
78571;SHT31;67861;51.966;5.672;2023-05-16T11:10:09;18.6;38.7
78571;SHT31;67861;51.966;5.672;2023-05-16T11:15:23;18.7;38.0
78571;SHT31;67861;51.966;5.672;2023-05-16T11:18:04;18.8;38.2
78571;SHT31;67861;51.966;5.672;2023-05-16T11:20:36;18.8;35.8
78571;SHT31;67861;51.966;5.672;2023-05-16T11:23:25;18.8;36.5
78571;SHT31;67861;51.966;5.672;2023-05-16T11:25:56;18.8;36.1
78571;SHT31;67861;51.966;5.672;2023-05-16T11:28:27;18.8;36.9
78571;SHT31;67861;51.966;5.672;2023-05-16T11:30:58;18.8;38.1
78571;SHT31;67861;51.966;5.672;2023-05-16T11:33:31;18.8;36.1
78571;SHT31;67861;51.966;5.672;2023-05-16T11:36:05;18.8;36.3
78571;SHT31;67861;51.966;5.672;2023-05-16T11:38:38;18.8;37.9
78571;SHT31;67861;51.966;5.672;2023-05-16T11:41:10;18.7;38.0
78571;SHT31;67861;51.966;5.672;2023-05-16T11:43:43;18.7;37.6
78571;SHT31;67861;51.966;5.672;2023-05-16T11:46:14;18.7;36.9
78571;SHT31;67861;51.966;5.672;2023-05-16T11:48:44;18.7;36.9
78571;SHT31;67861;51.966;5.672;2023-05-16T11:51:17;18.6;36.6
78571;SHT31;67861;51.966;5.672;2023-05-16T11:53:48;18.6;37.9
78571;SHT31;67861;51.966;5.672;2023-05-16T11:56:19;18.6;36.0
78571;SHT31;67861;51.966;5.672;2023-05-16T11:58:51;18.6;38.5
78571;SHT31;67861;51.966;5.672;2023-05-16T12:01:20;18.5;38.7
78571;SHT31;67861;51.966;5.672;2023-05-16T12:03:55;18.5;38.4
78571;SHT31;67861;51.966;5.672;2023-05-16T12:06:28;18.5;37.3
78571;SHT31;67861;51.966;5.672;2023-05-16T12:08:58;18.5;37.1
78571;SHT31;67861;51.966;5.672;2023-05-16T12:11:33;18.4;36.7
78571;SHT31;67861;51.966;5.672;2023-05-16T12:14:03;18.4;37.3
78571;SHT31;67861;51.966;5.672;2023-05-16T12:16:33;18.4;37.6
78571;SHT31;67861;51.966;5.672;2023-05-16T12:19:05;18.4;35.4
78571;SHT31;67861;51.966;5.672;2023-05-16T12:21:36;18.4;36.5
78571;SHT31;67861;51.966;5.672;2023-05-16T12:24:08;18.3;35.8
78571;SHT31;67861;51.966;5.672;2023-05-16T12:26:39;18.3;37.3
78571;SHT31;67861;51.966;5.672;2023-05-16T12:29:11;18.3;35.8
78571;SHT31;67861;51.966;5.672;2023-05-16T12:31:40;18.2;37.5
78571;SHT31;67861;51.966;5.672;2023-05-16T12:34:17;18.2;37.4
78571;SHT31;67861;51.966;5.672;2023-05-16T12:36:51;18.1;37.0
78571;SHT31;67861;51.966;5.672;2023-05-16T12:39:21;18.1;37.8
78571;SHT31;67861;51.966;5.672;2023-05-16T12:41:51;18.0;38.2
78571;SHT31;67861;51.966;5.672;2023-05-16T12:44:21;18.0;39.0
78571;SHT31;67861;51.966;5.672;2023-05-16T12:46:51;17.9;39.1
78571;SHT31;67861;51.966;5.672;2023-05-16T12:49:21;17.9;40.0
78571;SHT31;67861;51.966;5.672;2023-05-16T12:51:52;17.8;39.8
78571;SHT31;67861;51.966;5.672;2023-05-16T12:54:22;17.8;39.7
78571;SHT31;67861;51.966;5.672;2023-05-16T12:56:52;17.7;40.8
78571;SHT31;67861;51.966;5.672;2023-05-16T12:59:22;17.7;40.3
78571;SHT31;67861;51.966;5.672;2023-05-16T13:01:56;17.6;40.7
78571;SHT31;67861;51.966;5.672;2023-05-16T13:04:25;17.6;40.0
78571;SHT31;67861;51.966;5.672;2023-05-16T13:06:55;17.6;41.7
78571;SHT31;67861;51.966;5.672;2023-05-16T13:09:25;17.6;42.1
78571;SHT31;67861;51.966;5.672;2023-05-16T13:11:55;17.6;42.8
78571;SHT31;67861;51.966;5.672;2023-05-16T13:14:31;17.7;42.6
78571;SHT31;67861;51.966;5.672;2023-05-16T13:17:00;17.6;42.2
78571;SHT31;67861;51.966;5.672;2023-05-16T13:19:30;17.6;42.9
78571;SHT31;67861;51.966;5.672;2023-05-16T13:22:02;17.6;43.3
78571;SHT31;67861;51.966;5.672;2023-05-16T13:24:32;17.6;44.9
78571;SHT31;67861;51.966;5.672;2023-05-16T13:27:02;17.6;43.5
78571;SHT31;67861;51.966;5.672;2023-05-16T13:29:31;17.6;43.4
78571;SHT31;67861;51.966;5.672;2023-05-16T13:32:01;17.7;44.3
78571;SHT31;67861;51.966;5.672;2023-05-16T13:34:30;17.7;43.6
78571;SHT31;67861;51.966;5.672;2023-05-16T13:37:00;17.8;43.4
78571;SHT31;67861;51.966;5.672;2023-05-16T13:39:30;17.9;42.7
78571;SHT31;67861;51.966;5.672;2023-05-16T13:42:01;17.9;43.2
78571;SHT31;67861;51.966;5.672;2023-05-16T13:44:31;17.9;44.2
78571;SHT31;67861;51.966;5.672;2023-05-16T13:47:01;17.9;44.6
78571;SHT31;67861;51.966;5.672;2023-05-16T13:49:31;18.0;43.3
78571;SHT31;67861;51.966;5.672;2023-05-16T13:52:03;18.0;43.7
78571;SHT31;67861;51.966;5.672;2023-05-16T13:54:34;18.1;44.8
78571;SHT31;67861;51.966;5.672;2023-05-16T13:57:06;18.1;44.0
78571;SHT31;67861;51.966;5.672;2023-05-16T13:59:36;18.0;43.0
78571;SHT31;67861;51.966;5.672;2023-05-16T14:02:05;18.0;44.0
78571;SHT31;67861;51.966;5.672;2023-05-16T14:04:35;18.0;44.2
78571;SHT31;67861;51.966;5.672;2023-05-16T14:07:05;18.0;43.4
78571;SHT31;67861;51.966;5.672;2023-05-16T14:09:37;18.0;43.4
78571;SHT31;67861;51.966;5.672;2023-05-16T14:12:09;18.0;43.7
78571;SHT31;67861;51.966;5.672;2023-05-16T14:14:40;17.9;42.6
78571;SHT31;67861;51.966;5.672;2023-05-16T14:17:13;17.9;44.5
78571;SHT31;67861;51.966;5.672;2023-05-16T14:19:50;17.8;44.7
78571;SHT31;67861;51.966;5.672;2023-05-16T14:22:20;17.8;42.5
78571;SHT31;67861;51.966;5.672;2023-05-16T14:24:50;17.8;42.2
78571;SHT31;67861;51.966;5.672;2023-05-16T14:27:21;17.8;43.7
78571;SHT31;67861;51.966;5.672;2023-05-16T14:29:51;17.8;42.7
78571;SHT31;67861;51.966;5.672;2023-05-16T14:32:20;17.8;44.0
78571;SHT31;67861;51.966;5.672;2023-05-16T14:34:50;17.8;43.1
78571;SHT31;67861;51.966;5.672;2023-05-16T14:37:19;17.9;41.8
78571;SHT31;67861;51.966;5.672;2023-05-16T14:39:49;17.9;43.4
78571;SHT31;67861;51.966;5.672;2023-05-16T14:42:21;17.8;42.6
78571;SHT31;67861;51.966;5.672;2023-05-16T14:44:50;17.8;42.6
78571;SHT31;67861;51.966;5.672;2023-05-16T14:47:20;17.8;40.9
78571;SHT31;67861;51.966;5.672;2023-05-16T14:49:50;17.8;42.5
78571;SHT31;67861;51.966;5.672;2023-05-16T14:52:20;17.7;43.7
78571;SHT31;67861;51.966;5.672;2023-05-16T14:54:50;17.7;42.4
78571;SHT31;67861;51.966;5.672;2023-05-16T14:57:20;17.7;45.0
78571;SHT31;67861;51.966;5.672;2023-05-16T14:59:49;17.7;42.5
78571;SHT31;67861;51.966;5.672;2023-05-16T15:02:19;17.6;43.4
78571;SHT31;67861;51.966;5.672;2023-05-16T15:04:48;17.6;43.8
78571;SHT31;67861;51.966;5.672;2023-05-16T15:07:20;17.6;42.5
78571;SHT31;67861;51.966;5.672;2023-05-16T15:09:49;17.6;42.1
78571;SHT31;67861;51.966;5.672;2023-05-16T15:12:19;17.6;42.9
78571;SHT31;67861;51.966;5.672;2023-05-16T15:14:48;17.6;41.4
78571;SHT31;67861;51.966;5.672;2023-05-16T15:17:21;17.6;41.9
78571;SHT31;67861;51.966;5.672;2023-05-16T15:19:51;17.6;42.2
78571;SHT31;67861;51.966;5.672;2023-05-16T15:22:21;17.6;43.1
78571;SHT31;67861;51.966;5.672;2023-05-16T15:24:50;17.6;43.2
78571;SHT31;67861;51.966;5.672;2023-05-16T15:27:22;17.6;41.7
78571;SHT31;67861;51.966;5.672;2023-05-16T15:29:54;17.6;40.8
78571;SHT31;67861;51.966;5.672;2023-05-16T15:32:26;17.5;42.0
78571;SHT31;67861;51.966;5.672;2023-05-16T15:34:58;17.5;41.8
78571;SHT31;67861;51.966;5.672;2023-05-16T15:37:27;17.5;42.6
78571;SHT31;67861;51.966;5.672;2023-05-16T15:39:57;17.5;41.8
78571;SHT31;67861;51.966;5.672;2023-05-16T15:42:27;17.4;42.5
78571;SHT31;67861;51.966;5.672;2023-05-16T15:44:57;17.4;42.2
78571;SHT31;67861;51.966;5.672;2023-05-16T15:47:27;17.4;43.0
78571;SHT31;67861;51.966;5.672;2023-05-16T15:49:58;17.4;43.7
78571;SHT31;67861;51.966;5.672;2023-05-16T15:52:28;17.4;43.0
78571;SHT31;67861;51.966;5.672;2023-05-16T15:54:59;17.3;42.4
78571;SHT31;67861;51.966;5.672;2023-05-16T15:57:28;17.3;43.9
78571;SHT31;67861;51.966;5.672;2023-05-16T15:59:58;17.3;44.2
78571;SHT31;67861;51.966;5.672;2023-05-16T16:02:28;17.4;43.5
78571;SHT31;67861;51.966;5.672;2023-05-16T16:05:04;17.5;43.6
78571;SHT31;67861;51.966;5.672;2023-05-16T16:07:33;17.5;41.5
78571;SHT31;67861;51.966;5.672;2023-05-16T16:10:03;17.5;42.8
78571;SHT31;67861;51.966;5.672;2023-05-16T16:12:33;17.5;42.9
78571;SHT31;67861;51.966;5.672;2023-05-16T16:15:03;17.5;43.9
78571;SHT31;67861;51.966;5.672;2023-05-16T16:17:33;17.6;41.7
78571;SHT31;67861;51.966;5.672;2023-05-16T16:20:03;17.6;43.8
78571;SHT31;67861;51.966;5.672;2023-05-16T16:22:33;17.6;40.5
78571;SHT31;67861;51.966;5.672;2023-05-16T16:25:03;17.6;42.8
78571;SHT31;67861;51.966;5.672;2023-05-16T16:27:32;17.6;42.3
78571;SHT31;67861;51.966;5.672;2023-05-16T16:30:02;17.6;40.9